Istvan Botka

Chief Scout - Debrecen
4 Dec 2028
Monday
Process

Personality

Adaptability (10) Ambition (11) Controversy (11) Loyalty (14) Pressure (2) Professionalism (6) Sportsmanship (13) Temperament (16)

Profile

Coaching Style Democratic
License Continental A
Determination 12
Man Management 7
Motivating 4
Discipline 7
Job Satisfaction
56%
Fatigue
0%
Role Chief Scout
Wage 12.4K p/w
Contract 14.03.2029

Performance

Behaviour Good
Training Effectiveness
21%
Player Development
55%
Injury Prevention
45%
Tactical Implementation
50%

Recent Events

Attended a recruitment meeting now
Recommended a transfer target now
Recommended a transfer target now
Recommended a transfer target now
Recommended a transfer target now
Recommended a transfer target 7d ago
Recommended a transfer target 7d ago
Recommended a transfer target 7d ago

Currently Monitoring

100
Player Club Status Ability Confidence Watched Last Observed Latest Vote
Gad Mathews Nairobi United Active 95 / 89 40% 1 18.09.2028 -
Fabrizio Correa Juventud Active 120 / 123 40% 1 18.09.2028 -
Matías Budiño Colón Active 116 / 117 40% 1 18.09.2028 -
César Carrizo Mineros de Guayana Active 110 / 108 40% 1 13.09.2028 -
Abuchi Okeke Kano Pillars Active 100 / 95 40% 1 13.09.2028 -
Ignacio Suárez Cerro Active 104 / 114 40% 1 13.09.2028 -
Mustapha Lawal Shooting Stars Active 110 / 102 40% 2 12.09.2028 -
Juan Pablo Rial San Telmo Active 107 / 115 40% 1 12.09.2028 -
Emiliano González Almagro Active 127 / 119 40% 1 12.09.2028 -
Chisom Chiaha Barau Active 88 / 91 40% 1 11.09.2028 -
Roberto Ramírez Godoy Cruz Active 107 / 120 40% 1 11.09.2028 -
Andrés Mehring Progreso Active 109 / 104 40% 1 11.09.2028 -
Francisco Casanova Cerrito Active 106 / 112 40% 1 10.09.2028 -
Nahuel Pezzini Arsenal Active 118 / 109 40% 1 10.09.2028 -
Beycker Velásquez Zamora Active 115 / 107 40% 1 10.09.2028 -
Alejo Medina Agropecuario Argentino Active 100 / 107 40% 1 06.09.2028 -
Luciano Jachfe Nueva Chicago Active 122 / 124 40% 1 06.09.2028 -
Brian Olivera Racing Active 115 / 111 40% 1 04.09.2028 -
Emilio Di Fulvio Colegiales Active 118 / 117 40% 1 04.09.2028 -
Andraž Šporar NK Celje Active 118 / 118 66% 1 07.08.2028 Approve
Kwame Opoku Western Sydney Wanderers Active 99 / 99 66% 1 07.08.2028 Approve
Dato Mchedlidze Tskhinvali Lost 100 / 104 67% 1 01.06.2028 -
Ben Ahmed Kohili Paradou Lost 102 / 109 66% 1 01.06.2028 -
Sebastián Cocimano Nueva Chicago Active 109 / 113 40% 6 30.12.2027 -
Umar Ada Nasarawa United Active 104 / 103 40% 3 30.12.2027 -
Daniel Barrea Godoy Cruz Active 131 / 128 40% 7 30.12.2027 -
José Barreto Quilmes Active 118 / 117 40% 3 29.12.2027 -
Timothy Zechariah Rivers United Active 101 / 94 40% 7 29.12.2027 -
Augustine Nwaorisa Enyimba Active 97 / 100 40% 2 28.12.2027 -
Arthur Sales Maritzburg United Active 113 / 111 40% 1 28.12.2027 -
Ismail Sarki Niger Tornadoes Active 87 / 90 40% 8 27.12.2027 -
James Emo Rangers International Active 83 / 95 40% 4 27.12.2027 -
Favio Cabral Mitre Active 124 / 120 40% 11 25.12.2027 -
Juan David Rueda Alianza Petrolera Active 105 / 116 40% 5 25.12.2027 -
Marco Miori Alvarado Active 108 / 117 40% 4 25.12.2027 -
Stanley Amon Bayelsa United Active 95 / 95 40% 6 23.12.2027 -
Chineme Chinonso Ikorodu City Active 84 / 102 40% 5 23.12.2027 -
Emmanuel Jonas El-Kanemi Warriors Active 98 / 89 40% 4 22.12.2027 -
Uche Sabastine Warri Wolves Active 88 / 80 40% 5 18.12.2027 -
Oke Kayode Bendel Insurance Active 97 / 90 40% 3 17.12.2027 -
Hassan Beja AFC Leopards Active 82 / 88 40% 4 16.12.2027 -
Santiago Sala Güemes Active 121 / 104 40% 2 10.12.2027 -
Facundo Krüger Temperley Active 106 / 122 40% 4 09.12.2027 -
Samson Olasupo Remo Stars Active 91 / 95 40% 7 06.12.2027 -
Maren Kefas Plateau United Active 104 / 90 40% 5 02.12.2027 -
Abubakar Garba Nasarawa United Active 89 / 91 40% 5 28.11.2027 -
Okardi Inikurogha Bayelsa United Active 94 / 94 40% 3 26.11.2027 -
Josephat Lopaga Kakamega Homeboyz Active 98 / 94 40% 3 25.11.2027 -
Franco Ayunta Temperley Active 118 / 115 40% 1 21.11.2027 -
Lucas Pedraza Defensores Unidos Active 93 / 99 40% 1 21.11.2027 -
Augusto Berrondo Tristán Suárez Active 106 / 102 40% 4 18.11.2027 -
Sagir Arce Saburtalo Active 91 / 98 40% 1 17.11.2027 -
Alfred Emoni Bandari Active 79 / 81 40% 1 13.11.2027 -
Genaro Rossi San Martín SJ Active 101 / 110 40% 1 13.11.2027 -
Luca Franco Arsenal Active 119 / 115 40% 4 11.11.2027 -
Kingsley Maduforo Enyimba Active 100 / 88 40% 5 11.11.2027 -
Alexander Díaz Deportivo Riestra Active 128 / 127 40% 2 07.11.2027 -
Chisom Orji Warri Wolves Active 89 / 84 40% 1 01.11.2027 -
Maclyn Biokpo Jenewari Rivers United Active 112 / 112 40% 1 29.10.2027 -
Hamed Abdulhameed El-Kanemi Warriors Active 73 / 84 40% 1 29.10.2027 -
Auwalu Ali Malam Kano Pillars Active 87 / 95 40% 1 24.10.2027 -
Terdoo Shimagande Niger Tornadoes Active 93 / 81 40% 1 23.10.2027 -
Jefry Zapata Aldosivi Active 108 / 113 40% 1 11.10.2027 -
Ibrahim Yahaya Barau Active 104 / 97 40% 1 04.10.2027 -
Georgy Arutyunyan Puskas Akademia Active 100 / 112 69% 1 02.08.2027 Approve
Fábio Tavares Burton Albion Active 95 / 105 40% 2 26.07.2027 -
Emanuele Scipioni Monopoli Active 107 / 111 40% 1 26.07.2027 -
Lorent Tolaj Plymouth Argyle Active 114 / 121 40% 2 24.07.2027 -
Marezi Portsmouth Active 130 / 131 40% 1 22.07.2027 -
Sam Bell Bristol City Active 122 / 120 40% 5 21.07.2027 -
Will Swan Bradford City Active 101 / 107 40% 1 21.07.2027 -
Mees Rijks Bristol Rovers Active 114 / 116 40% 1 20.07.2027 -
Stiven Shpendi Empoli Active 125 / 118 40% 1 19.07.2027 -
Calum Kavanagh Oldham Athletic Active 104 / 103 40% 1 19.07.2027 -
Josh Coburn Millwall Active 130 / 123 40% 2 17.07.2027 -
Dale Taylor Blackpool Active 111 / 121 40% 1 16.07.2027 -
Luca Moro Padova Active 120 / 120 40% 1 15.07.2027 -
Aune Heggebø West Bromwich Albion Active 139 / 128 40% 2 13.07.2027 -
Malik Mothersille Stockport County Active 124 / 115 40% 1 13.07.2027 -
Callum Stead Barnet Active 91 / 98 40% 2 12.07.2027 -
Christian Saydee Wigan Athletic Active 111 / 112 40% 1 12.07.2027 -
Tyrese Campbell Sheffield United Active 127 / 130 40% 1 03.07.2027 -
Giorgi Kvernadze Frosinone Active 126 / 124 40% 2 01.07.2027 -
Tyreece Campbell Charlton Athletic Active 112 / 119 40% 1 28.06.2027 -
Tyrese Shade Burton Albion Active 96 / 97 40% 1 22.06.2027 -
Stephen Amankona Aduana Stars Active 95 / 88 40% 1 15.06.2027 -
Sam Greenwood Bristol City Active 128 / 124 40% 2 14.06.2027 -
Santiago Pierotti Lecce Active 138 / 135 40% 1 14.06.2027 -
Danny Butterworth Accrington Stanley Active 96 / 87 40% 1 11.06.2027 -
Daniel Nikolic Haladas Active 96 / 104 65% 1 06.06.2027 Approve
Ákos Zuigeber Honved Active 100 / 102 62% 1 18.01.2027 Approve
Dardan Shabanhaxhaj Rubin Active 110 / 117 40% 1 31.12.2026 -
Armstrong Oko-Flex Levski Active 128 / 116 40% 1 31.12.2026 -
Maximiliano Duarte Independiente Active 104 / 95 40% 1 05.09.2026 -
Mauro Carrizo Atlético Tucumán Active 103 / 109 40% 1 04.09.2026 -
Agustín Obregón River Plate Active 111 / 128 40% 1 04.09.2026 -
Ezra Mayers West Ham United Active 115 / 115 40% 1 02.09.2026 -
Roman Dixon Walsall Active 101 / 108 40% 1 24.08.2026 -
Gonzalo Escudero Racing Club Active 92 / 118 40% 1 24.08.2026 -
Ivan Šaponjić Diosgyor Active 94 / 93 62% 1 17.08.2026 Approve